| time (UTC) | temp C | wind direction | speed KPH | gust KPH | rain 1hr cm | rain 24hr cm | rain mn cm | humidity % | barometer mb |
| 20260508184501 | 18 | 162 | 4.8 | 14.5 | 0.00 | 0.00 | 0.00 | 36 | 1016.5 |
| 20260508183001 | 19 | 185 | 8.0 | 19.3 | 0.00 | 0.00 | 0.00 | 35 | 1016.9 |
| 20260508181604 | 19 | 162 | 6.4 | 22.5 | 0.00 | 0.00 | 0.00 | 36 | 1016.9 |
| 20260508180105 | 18 | 42 | 1.6 | 19.3 | 0.00 | 0.00 | 0.00 | 35 | 1017.1 |
| 20260508174555 | 18 | 276 | 3.2 | 11.3 | 0.00 | 0.00 | 0.00 | 37 | 1017.2 |
| 20260508173055 | 18 | 182 | 3.2 | 14.5 | 0.00 | 0.00 | 0.00 | 34 | 1017.4 |
| 20260508171554 | 18 | 167 | 4.8 | 17.7 | 0.00 | 0.00 | 0.00 | 35 | 1017.7 |
| 20260508170059 | 18 | 267 | 3.2 | 12.9 | 0.00 | 0.00 | 0.00 | 36 | 1017.9 |
| 20260508164554 | 18 | 148 | 3.2 | 14.5 | 0.00 | 0.00 | 0.00 | 38 | 1018.3 |
| 20260508163104 | 18 | 108 | 1.6 | 11.3 | 0.00 | 0.00 | 0.00 | 38 | 1018.3 |
| 20260508161557 | 18 | 166 | 3.2 | 8.0 | 0.00 | 0.00 | 0.00 | 38 | 1018.9 |
| 20260508160050 | 17 | 313 | 1.6 | 8.0 | 0.00 | 0.00 | 0.00 | 37 | 1018.8 |
| 20260508154548 | 17 | 261 | 1.6 | 8.0 | 0.00 | 0.00 | 0.00 | 38 | 1018.9 |
| 20260508153059 | 17 | 173 | 4.8 | 9.7 | 0.00 | 0.00 | 0.00 | 40 | 1019.0 |
| 20260508151544 | 16 | 213 | 1.6 | 8.0 | 0.00 | 0.00 | 0.00 | 38 | 1018.9 |
| 20260508150043 | 16 | 32 | 3.2 | 8.0 | 0.00 | 0.00 | 0.00 | 40 | 1018.9 |
| 20260508144543 | 16 | 296 | 1.6 | 6.4 | 0.00 | 0.03 | 0.00 | 42 | 1019.0 |
| 20260508143058 | 16 | 269 | 1.6 | 11.3 | 0.00 | 0.03 | 0.00 | 40 | 1019.2 |
| 20260508141541 | 16 | 149 | 4.8 | 11.3 | 0.00 | 0.03 | 0.00 | 41 | 1019.3 |
| 20260508140039 | 16 | 166 | 0.0 | 6.4 | 0.00 | 0.03 | 0.00 | 41 | 1019.3 |
| 20260508134538 | 15 | 100 | 0.0 | 8.0 | 0.00 | 0.10 | 0.00 | 45 | 1019.2 |
| 20260508133032 | 15 | 63 | 1.6 | 8.0 | 0.00 | 0.10 | 0.00 | 49 | 1019.4 |
| 20260508131530 | 14 | 82 | 3.2 | 6.4 | 0.00 | 0.10 | 0.00 | 47 | 1019.2 |
| 20260508130027 | 13 | 344 | 3.2 | 6.4 | 0.00 | 0.10 | 0.00 | 53 | 1019.0 |
| 20260508124528 | 12 | 317 | 1.6 | 8.0 | 0.00 | 0.15 | 0.00 | 56 | 1019.0 |
| 20260508123023 | 12 | 325 | 3.2 | 6.4 | 0.00 | 0.15 | 0.00 | 56 | 1018.8 |
| 20260508121515 | 11 | 327 | 3.2 | 6.4 | 0.00 | 0.15 | 0.00 | 56 | 1018.6 |
| 20260508120014 | 10 | 331 | 3.2 | 6.4 | 0.00 | 0.15 | 0.00 | 54 | 1018.3 |
| 20260508114511 | 9 | 311 | 3.2 | 6.4 | 0.00 | 0.30 | 0.00 | 54 | 1018.2 |
| 20260508113010 | 9 | 316 | 4.8 | 6.4 | 0.00 | 0.30 | 0.00 | 54 | 1017.8 |
| 20260508111514 | 8 | 360 | 4.8 | 8.0 | 0.00 | 0.30 | 0.00 | 54 | 1017.6 |
| 20260508110107 | 8 | 360 | 1.6 | 4.8 | 0.00 | 0.30 | 0.00 | 55 | 1017.3 |
| 20260508104505 | 8 | 360 | 1.6 | 3.2 | 0.00 | 0.30 | 0.00 | 54 | 1017.0 |
| 20260508103011 | 8 | 360 | 3.2 | 4.8 | 0.00 | 0.30 | 0.00 | 53 | 1016.7 |
| 20260508101505 | 8 | 360 | 1.6 | 6.4 | 0.00 | 0.30 | 0.00 | 53 | 1016.5 |
| 20260508100001 | 8 | 360 | 1.6 | 6.4 | 0.00 | 0.30 | 0.00 | 52 | 1016.3 |
| 20260508094600 | 8 | 360 | 3.2 | 4.8 | 0.00 | 0.33 | 0.00 | 53 | 1016.2 |
| 20260508093059 | 8 | 360 | 1.6 | 3.2 | 0.00 | 0.33 | 0.00 | 54 | 1016.3 |
| 20260508091611 | 8 | 360 | 0.0 | 4.8 | 0.00 | 0.33 | 0.00 | 54 | 1016.1 |
| 20260508090056 | 8 | 360 | 1.6 | 4.8 | 0.00 | 0.33 | 0.00 | 54 | 1016.0 |
| 20260508084555 | 8 | 360 | 1.6 | 3.2 | 0.00 | 0.36 | 0.00 | 55 | 1016.0 |
| 20260508083052 | 8 | 360 | 0.0 | 4.8 | 0.00 | 0.36 | 0.00 | 56 | 1015.9 |
| 20260508081610 | 8 | 360 | 0.0 | 4.8 | 0.00 | 0.36 | 0.00 | 57 | 1015.8 |
| 20260508080050 | 9 | 360 | 1.6 | 4.8 | 0.00 | 0.36 | 0.00 | 60 | 1015.8 |
| 20260508074548 | 9 | 360 | 0.0 | 0.0 | 0.00 | 0.36 | 0.00 | 60 | 1015.6 |
| 20260508073048 | 10 | 360 | 0.0 | 0.0 | 0.00 | 0.36 | 0.00 | 63 | 1015.6 |
| 20260508071542 | 10 | 360 | 0.0 | 0.0 | 0.00 | 0.36 | 0.00 | 64 | 1015.3 |
| 20260508070040 | 10 | 360 | 0.0 | 0.0 | 0.00 | 0.36 | 0.00 | 64 | 1015.3 |
| 20260508064539 | 10 | 360 | 0.0 | 0.0 | 0.00 | 0.46 | 0.36 | 63 | 1015.1 |
| 20260508063037 | 11 | 360 | 0.0 | 1.6 | 0.00 | 0.46 | 0.36 | 62 | 1015.1 |
| 20260508061535 | 11 | 360 | 0.0 | 0.0 | 0.00 | 0.46 | 0.36 | 63 | 1015.0 |
| 20260508060048 | 11 | 360 | 0.0 | 3.2 | 0.00 | 0.46 | 0.36 | 62 | 1015.1 |
| 20260508054607 | 11 | 360 | 0.0 | 3.2 | 0.00 | 0.81 | 0.36 | 61 | 1015.1 |
| 20260508053045 | 12 | 360 | 1.6 | 6.4 | 0.00 | 0.81 | 0.36 | 58 | 1015.1 |
| 20260508051529 | 11 | 360 | 0.0 | 6.4 | 0.00 | 0.81 | 0.36 | 61 | 1015.0 |
| 20260508050030 | 11 | 360 | 0.0 | 3.2 | 0.00 | 0.81 | 0.36 | 61 | 1015.1 |
| 20260508044530 | 11 | 360 | 0.0 | 3.2 | 0.00 | 0.97 | 0.36 | 60 | 1014.9 |
| 20260508043033 | 12 | 360 | 4.8 | 9.7 | 0.00 | 0.97 | 0.36 | 58 | 1014.9 |
| 20260508041524 | 12 | 360 | 0.0 | 3.2 | 0.00 | 0.97 | 0.36 | 56 | 1014.7 |
| 20260508040030 | 13 | 360 | 0.0 | 0.0 | 0.00 | 0.97 | 0.36 | 56 | 1014.7 |
| 20260508034528 | 13 | 360 | 0.0 | 0.0 | 0.00 | 0.97 | 0.36 | 52 | 1014.8 |
| 20260508033027 | 13 | 360 | 1.6 | 8.0 | 0.00 | 0.97 | 0.36 | 51 | 1014.6 |
| 20260508031515 | 14 | 360 | 4.8 | 9.7 | 0.00 | 0.97 | 0.36 | 51 | 1014.4 |
| 20260508030011 | 14 | 360 | 6.4 | 17.7 | 0.00 | 0.97 | 0.36 | 50 | 1014.5 |
| 20260508024510 | 14 | 360 | 4.8 | 8.0 | 0.00 | 1.17 | 0.36 | 51 | 1014.1 |
| 20260508023008 | 14 | 360 | 4.8 | 8.0 | 0.00 | 1.17 | 0.36 | 49 | 1014.0 |
| 20260508021506 | 15 | 360 | 3.2 | 8.0 | 0.00 | 1.17 | 0.36 | 49 | 1013.9 |
| 20260508020005 | 15 | 360 | 6.4 | 9.7 | 0.00 | 1.17 | 0.36 | 48 | 1013.7 |
| 20260508014502 | 15 | 360 | 4.8 | 16.1 | 0.00 | 1.45 | 0.36 | 48 | 1013.4 |
| 20260508013104 | 15 | 360 | 6.4 | 14.5 | 0.00 | 1.45 | 0.36 | 46 | 1013.2 |
| 20260508011615 | 16 | 360 | 4.8 | 12.9 | 0.00 | 1.45 | 0.36 | 45 | 1012.9 |
| 20260508004556 | 16 | 360 | 0.0 | 9.7 | 0.00 | 2.06 | 0.36 | 48 | 1012.3 |
| 20260508003054 | 16 | 360 | 4.8 | 9.7 | 0.00 | 2.06 | 0.36 | 49 | 1012.0 |
| 20260508001551 | 16 | 360 | 4.8 | 17.7 | 0.00 | 2.06 | 0.36 | 49 | 1011.4 |
| 20260508000052 | 17 | 360 | 4.8 | 14.5 | 0.00 | 2.06 | 0.36 | 49 | 1011.4 |
| 20260507234552 | 17 | 310 | 8.0 | 22.5 | 0.00 | 2.41 | 0.36 | 48 | 1011.3 |
| 20260507233052 | 18 | 320 | 8.0 | 22.5 | 0.00 | 2.41 | 0.36 | 48 | 1011.1 |
| 20260507231552 | 18 | 360 | 19.3 | 29.0 | 0.00 | 2.41 | 0.36 | 47 | 1011.0 |
| 20260507230050 | 19 | 312 | 20.9 | 33.8 | 0.00 | 2.41 | 0.36 | 47 | 1010.4 |
| 20260507224549 | 21 | 17 | 14.5 | 24.1 | 0.00 | 2.44 | 0.36 | 45 | 1009.6 |
| 20260507223048 | 21 | 360 | 9.7 | 22.5 | 0.00 | 2.44 | 0.36 | 45 | 1009.2 |
| 20260507221548 | 22 | 310 | 14.5 | 25.7 | 0.00 | 2.44 | 0.36 | 45 | 1008.9 |
| 20260507220047 | 22 | 355 | 12.9 | 24.1 | 0.00 | 2.44 | 0.36 | 46 | 1008.6 |
| 20260507214549 | 23 | 342 | 14.5 | 20.9 | 0.00 | 2.44 | 0.36 | 44 | 1008.4 |
| 20260507213145 | 23 | 318 | 11.3 | 24.1 | 0.00 | 2.44 | 0.36 | 47 | 1008.2 |
| 20260507211546 | 23 | 338 | 9.7 | 17.7 | 0.00 | 2.44 | 0.36 | 41 | 1008.0 |
| 20260507210044 | 23 | 272 | 8.0 | 22.5 | 0.00 | 2.44 | 0.36 | 37 | 1007.8 |
| 20260507204544 | 25 | 283 | 6.4 | 17.7 | 0.00 | 2.44 | 0.36 | 31 | 1007.6 |
| 20260507203040 | 25 | 207 | 9.7 | 19.3 | 0.00 | 2.44 | 0.36 | 30 | 1007.4 |
| 20260507201543 | 24 | 225 | 3.2 | 16.1 | 0.00 | 2.44 | 0.36 | 33 | 1007.6 |
| 20260507200138 | 24 | 182 | 9.7 | 19.3 | 0.00 | 2.44 | 0.36 | 30 | 1007.6 |
| 20260507194537 | 24 | 169 | 8.0 | 16.1 | 0.00 | 2.44 | 0.36 | 32 | 1007.7 |
| 20260507193036 | 23 | 132 | 4.8 | 14.5 | 0.00 | 2.44 | 0.36 | 34 | 1008.4 |
| 20260507191530 | 23 | 253 | 3.2 | 14.5 | 0.00 | 2.44 | 0.36 | 35 | 1008.3 |
| 20260507190031 | 23 | 255 | 6.4 | 19.3 | 0.00 | 2.44 | 0.36 | 32 | 1008.6 |